createdAt,value
2022-09-29T00:01:10.315Z,2.67
2022-09-29T00:03:39.572Z,2.60
2022-09-29T00:06:14.466Z,2.20
2022-09-29T00:08:42.421Z,2.53
2022-09-29T00:11:16.665Z,2.50
2022-09-29T00:13:45.139Z,2.45
2022-09-29T00:16:13.581Z,2.33
2022-09-29T00:18:41.549Z,2.83
2022-09-29T00:21:21.945Z,2.38
2022-09-29T00:23:50.893Z,2.35
2022-09-29T00:26:23.532Z,2.50
2022-09-29T00:28:53.955Z,2.25
2022-09-29T00:31:22.018Z,2.70
2022-09-29T00:33:51.186Z,2.10
2022-09-29T00:36:20.658Z,2.45
2022-09-29T00:38:49.572Z,2.60
2022-09-29T00:41:45.275Z,2.72
2022-09-29T00:44:15.894Z,2.65
2022-09-29T00:46:57.090Z,2.60
2022-09-29T00:49:45.520Z,2.88
2022-09-29T00:52:36.704Z,2.30
2022-09-29T00:55:10.540Z,2.40
2022-09-29T00:57:47.306Z,2.28
2022-09-29T01:00:16.258Z,2.58
2022-09-29T01:02:48.167Z,2.67
2022-09-29T01:05:25.955Z,3.10
2022-09-29T01:07:53.718Z,2.90
2022-09-29T01:10:22.209Z,3.53
2022-09-29T01:12:50.260Z,3.30
2022-09-29T01:15:20.787Z,2.97
2022-09-29T01:17:48.782Z,2.70
2022-09-29T01:20:20.740Z,2.55
2022-09-29T01:23:06.986Z,2.75
2022-09-29T01:26:05.142Z,2.70
2022-09-29T01:28:57.284Z,2.55
2022-09-29T01:31:32.978Z,2.60
2022-09-29T01:34:26.729Z,2.35
2022-09-29T01:37:09.096Z,2.58
2022-09-29T01:39:42.213Z,2.50
2022-09-29T01:42:19.980Z,2.53
2022-09-29T01:44:55.250Z,2.70
2022-09-29T01:47:31.416Z,2.58
2022-09-29T01:50:12.171Z,2.20
2022-09-29T01:52:44.419Z,2.67
2022-09-29T01:55:17.451Z,2.65
2022-09-29T01:57:57.606Z,2.22
2022-09-29T02:00:26.220Z,2.50
2022-09-29T02:03:03.116Z,2.67
2022-09-29T02:05:49.383Z,2.53
2022-09-29T02:08:32.973Z,2.45
2022-09-29T02:11:04.930Z,2.63
2022-09-29T02:13:55.237Z,2.20
2022-09-29T02:16:28.094Z,2.55
2022-09-29T02:19:30.853Z,2.20
2022-09-29T02:21:58.753Z,2.10
2022-09-29T02:24:26.256Z,2.63
2022-09-29T02:26:53.937Z,2.58
2022-09-29T02:29:21.697Z,2.35
2022-09-29T02:31:50.409Z,2.25
2022-09-29T02:34:21.903Z,2.15
2022-09-29T02:37:02.379Z,2.22
2022-09-29T02:39:32.594Z,1.90
2022-09-29T02:42:15.154Z,2.08
2022-09-29T02:45:01.147Z,1.98
2022-09-29T02:48:11.656Z,3.42
2022-09-29T02:51:03.166Z,2.33
2022-09-29T02:53:59.370Z,2.33
2022-09-29T02:56:48.289Z,2.20
2022-09-29T02:59:40.707Z,2.10
2022-09-29T03:02:08.175Z,2.28
2022-09-29T03:04:35.690Z,2.00
2022-09-29T03:07:03.051Z,2.03
2022-09-29T03:09:30.513Z,2.13
2022-09-29T03:11:58.643Z,1.90
2022-09-29T03:14:26.020Z,2.00
2022-09-29T03:16:53.466Z,2.17
2022-09-29T03:19:20.820Z,2.30
2022-09-29T03:21:48.301Z,2.08
2022-09-29T03:24:15.833Z,2.28
2022-09-29T03:26:43.210Z,1.63
2022-09-29T03:29:11.958Z,1.60
2022-09-29T03:31:42.760Z,2.13
2022-09-29T03:34:10.149Z,1.73
2022-09-29T03:36:37.555Z,1.80
2022-09-29T03:39:05.069Z,1.77
2022-09-29T03:41:32.393Z,1.85
2022-09-29T03:43:59.852Z,2.25
2022-09-29T03:46:27.263Z,1.60
2022-09-29T03:48:55.249Z,1.80
2022-09-29T03:51:22.668Z,2.05
2022-09-29T03:53:50.169Z,1.70
2022-09-29T03:56:17.672Z,1.80
2022-09-29T03:58:44.976Z,1.63
2022-09-29T04:01:12.406Z,2.00
2022-09-29T04:03:39.841Z,1.52
2022-09-29T04:06:07.236Z,1.75
2022-09-29T04:08:37.359Z,1.80
2022-09-29T04:11:05.897Z,1.92
2022-09-29T04:13:34.079Z,1.90
2022-09-29T04:16:05.963Z,2.00
2022-09-29T04:18:34.130Z,1.63
2022-09-29T04:21:06.839Z,1.60
2022-09-29T04:23:38.510Z,1.52
2022-09-29T04:26:06.288Z,1.95
2022-09-29T04:28:35.572Z,2.03
2022-09-29T04:31:03.156Z,1.80
2022-09-29T04:33:31.494Z,1.70
2022-09-29T04:35:59.751Z,1.63
2022-09-29T04:38:27.444Z,1.67
2022-09-29T04:40:54.811Z,1.70
2022-09-29T04:43:22.526Z,1.70
2022-09-29T04:45:49.975Z,1.50
2022-09-29T04:48:17.318Z,1.65
2022-09-29T04:50:44.718Z,1.60
2022-09-29T04:53:12.486Z,1.52
2022-09-29T04:55:39.944Z,1.50
2022-09-29T04:58:07.715Z,1.48
2022-09-29T05:00:36.758Z,1.45
2022-09-29T05:03:04.627Z,1.60
2022-09-29T05:05:32.157Z,1.40
2022-09-29T05:07:59.793Z,1.50
2022-09-29T05:10:27.387Z,1.40
2022-09-29T05:12:56.888Z,1.60
2022-09-29T05:15:26.115Z,1.50
2022-09-29T05:17:55.571Z,1.50
2022-09-29T05:20:23.146Z,1.60
2022-09-29T05:22:50.578Z,1.60
2022-09-29T05:25:18.097Z,1.50
2022-09-29T05:27:45.498Z,1.50
2022-09-29T05:30:13.030Z,1.33
2022-09-29T05:32:40.382Z,1.30
2022-09-29T05:35:08.464Z,1.27
2022-09-29T05:37:35.915Z,1.40
2022-09-29T05:40:05.451Z,1.50
2022-09-29T05:42:33.006Z,1.42
2022-09-29T05:45:00.468Z,1.52
2022-09-29T05:47:27.894Z,1.55
2022-09-29T05:49:55.379Z,1.63
2022-09-29T05:52:22.955Z,1.40
2022-09-29T05:55:00.052Z,1.30
2022-09-29T05:57:30.597Z,0.90
2022-09-29T05:59:59.142Z,1.20
2022-09-29T06:02:26.691Z,1.30
2022-09-29T06:04:55.780Z,1.20
2022-09-29T06:07:27.188Z,1.17
2022-09-29T06:09:55.823Z,1.00
2022-09-29T06:12:25.178Z,1.10
2022-09-29T06:14:52.855Z,0.90
2022-09-29T06:17:20.583Z,0.90
2022-09-29T06:19:48.613Z,1.00
2022-09-29T06:22:25.396Z,1.08
2022-09-29T06:24:53.453Z,1.10
2022-09-29T06:27:22.430Z,1.20
2022-09-29T06:29:57.348Z,1.02
2022-09-29T06:32:25.138Z,1.10
2022-09-29T06:35:11.136Z,1.23
2022-09-29T06:37:45.673Z,1.00
2022-09-29T06:40:17.507Z,0.70
2022-09-29T06:42:46.259Z,0.73
2022-09-29T06:45:17.380Z,0.68
2022-09-29T06:47:48.795Z,0.70
2022-09-29T06:50:17.817Z,0.80
2022-09-29T06:53:04.024Z,0.80
2022-09-29T06:55:32.284Z,0.80
2022-09-29T06:58:03.991Z,0.70
2022-09-29T07:00:33.438Z,0.70
2022-09-29T07:03:02.216Z,0.80
2022-09-29T07:05:29.760Z,0.70
2022-09-29T07:08:01.056Z,0.70
2022-09-29T07:10:30.428Z,1.00
2022-09-29T07:13:01.219Z,0.90
2022-09-29T07:15:32.509Z,0.90
2022-09-29T07:18:04.781Z,0.80
2022-09-29T07:20:33.047Z,0.70
2022-09-29T07:23:02.675Z,0.80
2022-09-29T07:25:51.074Z,0.85
2022-09-29T07:28:19.652Z,0.93
2022-09-29T07:31:15.547Z,0.65
2022-09-29T07:33:48.286Z,0.80
2022-09-29T07:36:19.413Z,0.80
2022-09-29T07:38:51.818Z,0.80
2022-09-29T07:41:22.959Z,0.75
2022-09-29T07:43:56.323Z,1.00
2022-09-29T07:46:29.574Z,0.80
2022-09-29T07:49:01.371Z,0.90
2022-09-29T07:51:36.052Z,0.98
2022-09-29T07:54:13.962Z,0.77
2022-09-29T07:56:44.040Z,0.90
2022-09-29T07:59:12.270Z,1.00
2022-09-29T08:01:41.840Z,0.95
2022-09-29T08:04:09.950Z,1.00
2022-09-29T08:07:06.188Z,0.80
2022-09-29T08:09:40.983Z,0.82
2022-09-29T08:12:11.964Z,1.00
2022-09-29T08:14:44.381Z,0.88
2022-09-29T08:17:23.153Z,0.63
2022-09-29T08:20:04.030Z,0.80
2022-09-29T08:22:34.143Z,0.75
2022-09-29T08:25:08.734Z,0.73
2022-09-29T08:27:51.617Z,0.85
2022-09-29T08:30:23.207Z,0.73
2022-09-29T08:32:56.818Z,0.70
2022-09-29T08:35:29.087Z,0.70
2022-09-29T08:38:07.538Z,0.80
2022-09-29T08:40:46.145Z,0.80
2022-09-29T08:43:35.288Z,0.70
2022-09-29T08:46:33.877Z,0.82
2022-09-29T08:49:33.270Z,0.90
2022-09-29T08:52:16.889Z,0.80
2022-09-29T08:54:50.844Z,0.80
2022-09-29T08:57:21.755Z,0.85
2022-09-29T08:59:58.322Z,0.80
2022-09-29T09:02:29.005Z,1.00
2022-09-29T09:04:59.774Z,2.28
2022-09-29T09:07:42.206Z,0.85
2022-09-29T09:10:26.781Z,0.95
2022-09-29T09:13:22.465Z,1.10
2022-09-29T09:16:08.294Z,0.80
2022-09-29T09:18:42.771Z,1.00
2022-09-29T09:21:43.815Z,0.90
2022-09-29T09:24:25.760Z,0.80
2022-09-29T09:26:54.044Z,0.90
2022-09-29T09:29:40.187Z,0.98
2022-09-29T09:32:26.302Z,0.98
2022-09-29T09:35:18.598Z,1.08
2022-09-29T09:37:51.928Z,1.00
2022-09-29T09:40:29.998Z,0.90
2022-09-29T09:43:10.933Z,0.98
2022-09-29T09:45:57.172Z,0.98
2022-09-29T09:48:36.670Z,1.02
2022-09-29T09:54:40.545Z,1.17
2022-09-29T09:57:14.062Z,1.00
2022-09-29T10:00:10.562Z,1.20
2022-09-29T10:02:59.855Z,0.90
2022-09-29T10:05:40.286Z,1.08
2022-09-29T10:08:13.633Z,1.05
2022-09-29T10:10:57.561Z,1.00
2022-09-29T10:13:32.014Z,0.90
2022-09-29T10:16:02.372Z,1.10
2022-09-29T10:18:54.902Z,1.00
2022-09-29T10:21:44.550Z,1.10
2022-09-29T10:24:31.264Z,1.25
2022-09-29T10:27:05.371Z,0.95
2022-09-29T10:29:43.383Z,1.17
2022-09-29T10:32:15.249Z,1.23
2022-09-29T10:34:59.245Z,1.10
2022-09-29T10:38:05.145Z,1.10
2022-09-29T10:40:33.574Z,1.15
2022-09-29T10:43:31.184Z,1.10
2022-09-29T10:46:00.263Z,0.98
2022-09-29T10:48:31.318Z,1.13
2022-09-29T10:51:02.033Z,1.08
2022-09-29T10:53:37.652Z,1.30
2022-09-29T10:56:17.517Z,1.30
2022-09-29T10:59:03.276Z,1.20
2022-09-29T11:01:45.441Z,1.10
2022-09-29T11:04:24.159Z,1.00
2022-09-29T11:06:52.480Z,1.10
2022-09-29T11:09:20.003Z,1.30
2022-09-29T11:11:47.900Z,1.30
2022-09-29T11:14:27.543Z,1.48
2022-09-29T11:17:01.959Z,1.27
2022-09-29T11:19:31.671Z,1.17
2022-09-29T11:22:28.507Z,1.35
2022-09-29T11:25:24.452Z,1.42
2022-09-29T11:28:01.627Z,1.20
2022-09-29T11:30:56.344Z,1.10
2022-09-29T11:33:23.960Z,1.33
2022-09-29T11:36:14.697Z,1.30
2022-09-29T11:39:09.373Z,1.38
2022-09-29T11:41:54.566Z,1.30
2022-09-29T11:44:24.795Z,1.30
2022-09-29T11:47:19.406Z,1.65
2022-09-29T11:49:51.201Z,1.30
2022-09-29T11:52:44.222Z,1.60
2022-09-29T11:55:34.246Z,1.77
2022-09-29T11:58:21.132Z,1.52
2022-09-29T12:01:10.061Z,1.80
2022-09-29T12:03:45.496Z,1.70
2022-09-29T12:06:16.516Z,1.60
2022-09-29T12:09:05.146Z,1.75
2022-09-29T12:11:54.831Z,1.70
2022-09-29T12:14:53.378Z,1.70
2022-09-29T12:17:26.025Z,1.70
2022-09-29T12:20:02.015Z,1.60
2022-09-29T12:22:34.600Z,1.80
2022-09-29T12:25:04.999Z,1.70
2022-09-29T12:27:40.767Z,1.50
2022-09-29T12:30:16.407Z,1.70
2022-09-29T12:33:03.893Z,1.70
2022-09-29T12:35:45.350Z,1.83
2022-09-29T12:38:29.022Z,1.67
2022-09-29T12:41:17.699Z,1.88
2022-09-29T12:44:24.158Z,1.85
2022-09-29T12:46:59.118Z,1.90
2022-09-29T12:49:57.410Z,1.80
2022-09-29T12:52:32.448Z,1.77
2022-09-29T12:55:04.294Z,1.90
2022-09-29T12:57:40.365Z,2.00
2022-09-29T13:00:14.702Z,1.67
2022-09-29T13:03:01.247Z,1.90
2022-09-29T13:06:10.305Z,1.90
2022-09-29T13:08:43.199Z,2.03
2022-09-29T13:11:55.155Z,2.00
2022-09-29T13:14:43.266Z,2.13
2022-09-29T13:20:32.628Z,2.30
2022-09-29T13:23:12.130Z,2.33
2022-09-29T13:26:01.760Z,2.10
2022-09-29T13:28:29.203Z,2.03
2022-09-29T13:31:03.039Z,2.13
2022-09-29T13:33:31.284Z,1.90
2022-09-29T13:35:59.745Z,2.00
2022-09-29T13:38:30.394Z,2.00
2022-09-29T13:41:35.363Z,2.08
2022-09-29T13:44:07.572Z,2.17
2022-09-29T13:46:39.651Z,1.90
2022-09-29T13:49:14.679Z,2.50
2022-09-29T13:51:58.124Z,2.60
2022-09-29T13:54:27.205Z,2.47
2022-09-29T13:57:07.458Z,2.50
2022-09-29T13:59:36.566Z,2.47
2022-09-29T14:02:20.201Z,2.53
2022-09-29T14:04:50.794Z,2.28
2022-09-29T14:07:42.065Z,2.58
2022-09-29T14:10:35.929Z,2.60
2022-09-29T14:13:24.729Z,2.55
2022-09-29T14:16:18.291Z,2.88
2022-09-29T14:19:15.388Z,3.10
2022-09-29T14:22:30.652Z,2.80
2022-09-29T14:25:13.816Z,3.13
2022-09-29T14:28:03.922Z,3.05
2022-09-29T14:30:36.797Z,4.28
2022-09-29T14:33:14.217Z,3.50
2022-09-29T14:35:52.811Z,3.38
2022-09-29T14:38:42.942Z,3.65
2022-09-29T14:41:13.338Z,4.40
2022-09-29T14:43:46.679Z,4.50
2022-09-29T14:46:38.258Z,4.25
2022-09-29T14:49:56.963Z,4.45
2022-09-29T14:52:43.898Z,3.30
2022-09-29T14:55:23.917Z,3.10
2022-09-29T14:58:05.403Z,3.28
2022-09-29T15:01:03.911Z,3.00
2022-09-29T15:03:45.689Z,3.08
2022-09-29T15:06:15.449Z,3.13
2022-09-29T15:08:52.944Z,3.13
2022-09-29T15:11:31.831Z,3.80
2022-09-29T15:14:00.281Z,3.88
2022-09-29T15:16:39.624Z,4.00
2022-09-29T15:19:20.877Z,3.80
2022-09-29T15:22:21.412Z,3.78
2022-09-29T15:25:10.846Z,3.80
2022-09-29T15:27:40.690Z,3.47
2022-09-29T15:30:19.158Z,3.70
2022-09-29T15:32:49.866Z,3.65
2022-09-29T15:35:25.094Z,4.18
2022-09-29T15:37:55.697Z,3.97
2022-09-29T15:40:26.103Z,4.10
2022-09-29T15:42:56.173Z,4.32
2022-09-29T15:45:27.582Z,3.72
2022-09-29T15:48:06.444Z,3.92
2022-09-29T15:50:43.601Z,3.65
2022-09-29T15:53:12.004Z,3.67
2022-09-29T15:55:40.569Z,3.63
2022-09-29T15:58:26.680Z,3.33
2022-09-29T16:01:00.370Z,3.40
2022-09-29T16:03:57.865Z,3.75
2022-09-29T16:06:35.937Z,4.15
2022-09-29T16:09:18.571Z,3.70
2022-09-29T16:11:46.478Z,4.18
2022-09-29T16:14:27.243Z,4.35
2022-09-29T16:16:57.104Z,4.18
2022-09-29T16:19:28.356Z,4.18
2022-09-29T16:21:59.841Z,3.90
2022-09-29T16:24:31.982Z,4.00
2022-09-29T16:27:00.082Z,4.45
2022-09-29T16:29:27.638Z,4.53
2022-09-29T16:31:56.276Z,4.28
2022-09-29T16:34:23.805Z,4.47
2022-09-29T16:36:58.258Z,4.78
2022-09-29T16:39:30.149Z,4.95
2022-09-29T16:42:00.341Z,4.65
2022-09-29T16:44:28.157Z,4.70
2022-09-29T16:47:12.907Z,5.38
2022-09-29T16:49:58.101Z,4.68
2022-09-29T16:52:29.579Z,5.00
2022-09-29T16:55:31.137Z,5.53
2022-09-29T16:58:04.640Z,5.88
2022-09-29T17:00:32.690Z,6.50
2022-09-29T17:03:03.658Z,5.90
2022-09-29T17:05:35.989Z,5.22
2022-09-29T17:10:36.404Z,4.30
2022-09-29T17:13:13.722Z,4.88
2022-09-29T17:15:41.960Z,5.95
2022-09-29T17:18:13.306Z,5.15
2022-09-29T17:20:41.541Z,4.90
2022-09-29T17:23:10.263Z,4.25
2022-09-29T17:25:41.406Z,4.18
2022-09-29T17:28:24.784Z,4.28
2022-09-29T17:30:56.093Z,4.78
2022-09-29T17:33:24.008Z,5.10
2022-09-29T17:35:55.736Z,5.38
2022-09-29T17:38:24.347Z,4.80
2022-09-29T17:41:02.683Z,4.57
2022-09-29T17:43:31.719Z,5.53
2022-09-29T17:46:00.623Z,6.20
2022-09-29T17:48:29.234Z,6.45
2022-09-29T17:50:59.591Z,7.00
2022-09-29T17:53:27.221Z,6.10
2022-09-29T17:55:57.337Z,6.72
2022-09-29T17:58:25.625Z,5.82
2022-09-29T18:00:57.177Z,7.13
2022-09-29T18:03:25.181Z,6.93
2022-09-29T18:05:57.104Z,5.53
2022-09-29T18:08:26.844Z,7.07
2022-09-29T18:10:59.477Z,7.63
2022-09-29T18:13:29.096Z,5.78
2022-09-29T18:15:58.513Z,5.70
2022-09-29T18:18:26.455Z,7.68
2022-09-29T18:20:54.219Z,8.68
2022-09-29T18:23:24.475Z,10.15
2022-09-29T18:25:53.269Z,8.05
2022-09-29T18:28:21.178Z,7.32
2022-09-29T18:30:52.540Z,6.93
2022-09-29T18:33:21.103Z,6.53
2022-09-29T18:35:54.127Z,5.53
2022-09-29T18:38:22.111Z,5.72
2022-09-29T18:40:55.534Z,5.80
2022-09-29T18:43:25.857Z,5.28
2022-09-29T18:45:56.037Z,4.53
2022-09-29T18:48:23.928Z,5.00
2022-09-29T18:50:53.954Z,4.30
2022-09-29T18:53:24.130Z,3.78
2022-09-29T18:55:57.768Z,4.03
2022-09-29T18:58:25.707Z,3.85
2022-09-29T19:00:55.633Z,3.78
2022-09-29T19:03:26.460Z,3.55
2022-09-29T19:05:55.030Z,3.33
2022-09-29T19:08:22.985Z,2.80
2022-09-29T19:10:55.561Z,2.55
2022-09-29T19:13:23.391Z,2.60
2022-09-29T19:15:59.753Z,2.80
2022-09-29T19:18:27.580Z,2.47
2022-09-29T19:20:58.624Z,2.30
2022-09-29T19:23:26.923Z,2.40
2022-09-29T19:25:55.468Z,2.85
2022-09-29T19:28:23.894Z,2.90
2022-09-29T19:30:51.541Z,2.40
2022-09-29T19:33:22.353Z,3.13
2022-09-29T19:35:54.582Z,2.80
2022-09-29T19:38:23.333Z,2.50
2022-09-29T19:40:52.214Z,2.63
2022-09-29T19:43:21.798Z,2.58
2022-09-29T19:45:50.393Z,2.10
2022-09-29T19:48:20.456Z,2.63
2022-09-29T19:51:07.916Z,2.80
2022-09-29T19:53:36.218Z,2.60
2022-09-29T19:56:09.441Z,2.55
2022-09-29T19:58:39.298Z,2.90
2022-09-29T20:01:08.608Z,2.50
2022-09-29T20:03:40.472Z,2.75
2022-09-29T20:06:09.190Z,2.50
2022-09-29T20:08:36.784Z,2.88
2022-09-29T20:11:09.544Z,2.75
2022-09-29T20:13:37.174Z,2.90
2022-09-29T20:16:06.364Z,2.78
2022-09-29T20:18:36.065Z,3.10
2022-09-29T20:21:08.469Z,2.50
2022-09-29T20:23:37.740Z,2.35
2022-09-29T20:26:09.261Z,3.08
2022-09-29T20:28:37.661Z,2.65
2022-09-29T20:31:07.857Z,2.95
2022-09-29T20:33:36.877Z,3.00
2022-09-29T20:36:05.751Z,2.75
2022-09-29T20:38:39.869Z,3.20
2022-09-29T20:41:07.990Z,3.00
2022-09-29T20:43:35.981Z,3.05
2022-09-29T20:46:08.381Z,3.28
2022-09-29T20:48:37.913Z,3.58
2022-09-29T20:51:08.182Z,3.30
2022-09-29T20:53:40.773Z,2.92
2022-09-29T20:56:11.660Z,2.97
2022-09-29T20:58:44.366Z,3.15
2022-09-29T21:01:14.111Z,3.10
2022-09-29T21:03:41.746Z,3.33
2022-09-29T21:06:10.056Z,3.10
2022-09-29T21:08:39.499Z,3.08
2022-09-29T21:11:07.413Z,3.20
2022-09-29T21:13:35.632Z,4.13
2022-09-29T21:16:03.942Z,4.55
2022-09-29T21:18:32.293Z,4.70
2022-09-29T21:21:02.497Z,5.53
2022-09-29T21:23:34.711Z,5.60
2022-09-29T21:26:07.000Z,5.85
2022-09-29T21:28:39.385Z,6.40
2022-09-29T21:31:13.640Z,6.43
2022-09-29T21:33:42.661Z,6.18
2022-09-29T21:36:13.714Z,6.90
2022-09-29T21:38:42.894Z,7.65
2022-09-29T21:41:25.182Z,7.90
2022-09-29T21:43:55.055Z,8.05
2022-09-29T21:46:25.514Z,6.78
2022-09-29T21:48:57.780Z,6.78
2022-09-29T21:51:31.060Z,7.40
2022-09-29T21:54:05.016Z,7.90
2022-09-29T21:56:35.823Z,9.13
2022-09-29T21:59:03.425Z,8.85
2022-09-29T22:01:31.905Z,9.07
2022-09-29T22:03:59.868Z,9.07
2022-09-29T22:06:30.348Z,9.30
2022-09-29T22:08:59.054Z,8.30
2022-09-29T22:11:29.518Z,9.07
2022-09-29T22:14:00.139Z,8.90
2022-09-29T22:16:32.583Z,9.13
2022-09-29T22:21:49.943Z,8.23
2022-09-29T22:24:17.410Z,8.27
2022-09-29T22:26:45.242Z,9.02
2022-09-29T22:29:13.869Z,9.05
2022-09-29T22:31:41.950Z,8.20
2022-09-29T22:34:11.590Z,8.32
2022-09-29T22:36:39.502Z,8.88
2022-09-29T22:39:07.912Z,8.50
2022-09-29T22:41:39.852Z,8.65
2022-09-29T22:44:08.341Z,8.43
2022-09-29T22:46:36.289Z,9.32
2022-09-29T22:49:04.393Z,9.88
2022-09-29T22:51:32.644Z,8.77
2022-09-29T22:54:00.239Z,10.20
2022-09-29T22:56:31.258Z,8.73
2022-09-29T22:59:04.707Z,9.35
2022-09-29T23:01:35.947Z,9.77
2022-09-29T23:04:04.496Z,9.80
2022-09-29T23:06:32.946Z,9.73
2022-09-29T23:09:00.551Z,9.50
2022-09-29T23:11:28.811Z,10.18
2022-09-29T23:13:56.782Z,9.75
2022-09-29T23:16:24.327Z,8.82
2022-09-29T23:18:55.019Z,9.90
2022-09-29T23:21:24.514Z,8.25
2022-09-29T23:23:56.181Z,8.68
2022-09-29T23:26:25.797Z,8.20
2022-09-29T23:28:53.486Z,6.78
2022-09-29T23:31:21.620Z,7.63
2022-09-29T23:33:56.124Z,7.35
2022-09-29T23:36:25.869Z,7.38
2022-09-29T23:39:19.883Z,7.00
2022-09-29T23:41:50.027Z,7.15
2022-09-29T23:44:19.138Z,7.28
2022-09-29T23:46:47.444Z,7.03
2022-09-29T23:49:18.385Z,7.82
2022-09-29T23:51:48.205Z,7.38
2022-09-29T23:54:18.367Z,8.02
2022-09-29T23:56:46.729Z,7.95
2022-09-29T23:59:14.918Z,8.07
